Time;durP1;ratioP1;P1;durP2;ratioP2;P2;SDS_P1;SDS_P2;PMS_P1;PMS_P2;Temp;Humidity;BMP_temperature;BMP_pressure;BME280_temperature;BME280_humidity;BME280_pressure;Samples;Min_cycle;Max_cycle;Signal;HPM_P1;HPM_P2
2023/02/19 00:01:07;;;;;;;16.53;8.20;;;10.60;99.90;;;;;;5017358;28;20607;-71
2023/02/19 00:03:34;;;;;;;11.30;7.53;;;10.70;99.90;;;;;;4995471;28;20470;-69
2023/02/19 00:06:04;;;;;;;14.63;7.83;;;10.60;99.90;;;;;;4996500;28;20509;-71
2023/02/19 00:08:31;;;;;;;13.90;10.00;;;10.60;99.90;;;;;;4998124;28;20466;-70
2023/02/19 00:11:01;;;;;;;21.67;10.10;;;10.60;99.90;;;;;;4998976;28;20481;-71
2023/02/19 00:13:31;;;;;;;45.23;12.47;;;10.60;99.90;;;;;;4995380;28;20466;-71
2023/02/19 00:16:06;;;;;;;16.23;7.50;;;10.70;99.90;;;;;;5004696;28;20543;-71
2023/02/19 00:18:33;;;;;;;23.73;12.50;;;10.80;99.90;;;;;;5001081;28;20471;-71
2023/02/19 00:21:00;;;;;;;23.57;12.40;;;10.80;99.90;;;;;;5000093;28;20521;-69
2023/02/19 00:23:27;;;;;;;21.13;11.77;;;10.80;99.90;;;;;;5000839;28;20477;-72
2023/02/19 00:25:53;;;;;;;21.80;10.30;;;10.80;99.90;;;;;;5008609;28;20457;-70
2023/02/19 00:28:20;;;;;;;23.27;12.33;;;10.80;99.90;;;;;;5016236;28;20525;-69
2023/02/19 00:30:48;;;;;;;16.67;8.57;;;10.80;99.90;;;;;;5015159;28;20482;-70
2023/02/19 00:33:19;;;;;;;24.30;11.33;;;10.80;99.90;;;;;;5003143;28;20475;-70
2023/02/19 00:35:46;;;;;;;13.77;7.50;;;10.90;99.90;;;;;;5001549;28;20488;-70
2023/02/19 00:38:13;;;;;;;24.67;11.63;;;10.80;99.90;;;;;;5003592;28;21265;-70
2023/02/19 00:40:40;;;;;;;28.70;11.70;;;10.90;99.90;;;;;;5004604;28;20811;-70
2023/02/19 00:43:07;;;;;;;26.83;9.60;;;11.00;99.90;;;;;;5002830;28;20480;-70
2023/02/19 00:45:34;;;;;;;28.00;11.83;;;11.00;99.90;;;;;;5002367;28;20884;-70
2023/02/19 00:48:01;;;;;;;20.77;10.93;;;11.00;99.90;;;;;;4997420;28;20519;-69
2023/02/19 00:50:30;;;;;;;32.57;10.90;;;11.00;99.90;;;;;;5000153;28;20472;-71
2023/02/19 00:52:57;;;;;;;24.83;13.83;;;11.00;99.90;;;;;;4997598;28;20466;-70
2023/02/19 00:55:24;;;;;;;23.10;10.57;;;10.90;99.90;;;;;;5005889;28;20545;-70
2023/02/19 00:57:51;;;;;;;16.67;7.70;;;11.00;99.90;;;;;;5001127;28;20469;-71
2023/02/19 01:00:18;;;;;;;21.37;11.70;;;11.00;99.90;;;;;;5006041;28;20441;-70
2023/02/19 01:02:45;;;;;;;18.57;11.47;;;11.00;99.90;;;;;;5003823;28;20531;-70
2023/02/19 01:05:11;;;;;;;20.47;10.33;;;11.00;99.90;;;;;;5007801;28;20532;-70
2023/02/19 01:07:40;;;;;;;15.00;6.80;;;11.00;99.90;;;;;;4997061;28;20480;-70
2023/02/19 01:10:07;;;;;;;14.23;8.03;;;11.00;99.90;;;;;;5002145;28;20560;-69
2023/02/19 01:12:34;;;;;;;15.80;11.10;;;11.00;99.90;;;;;;4995719;28;21176;-71
2023/02/19 01:15:01;;;;;;;18.90;10.90;;;10.90;99.90;;;;;;4997078;28;20477;-71
2023/02/19 01:17:28;;;;;;;17.60;8.30;;;10.90;99.90;;;;;;4992993;28;20593;-70
2023/02/19 01:19:55;;;;;;;18.57;8.13;;;10.90;99.90;;;;;;5000557;28;20462;-71
2023/02/19 01:22:22;;;;;;;16.73;9.90;;;10.90;99.90;;;;;;5000477;28;21135;-70
2023/02/19 01:24:50;;;;;;;21.40;11.50;;;10.80;99.90;;;;;;4995403;28;20533;-71
2023/02/19 01:27:17;;;;;;;20.83;11.83;;;10.80;99.90;;;;;;5003081;28;20463;-70
2023/02/19 01:29:44;;;;;;;20.30;10.50;;;10.80;99.90;;;;;;5010630;28;20901;-69
2023/02/19 01:32:11;;;;;;;9.53;4.73;;;10.90;99.90;;;;;;5012466;28;20466;-71
2023/02/19 01:34:39;;;;;;;24.40;12.10;;;10.80;99.90;;;;;;5002503;28;20630;-71
2023/02/19 01:37:10;;;;;;;25.80;10.87;;;10.80;99.90;;;;;;5001755;28;21030;-69
2023/02/19 01:39:37;;;;;;;20.33;11.53;;;10.90;99.90;;;;;;4996146;28;20428;-70
2023/02/19 01:42:12;;;;;;;24.07;12.80;;;10.90;99.90;;;;;;5007597;28;20593;-70
2023/02/19 01:45:20;;;;;;;17.37;11.27;;;10.80;99.90;;;;;;5006080;28;20549;-71
2023/02/19 01:47:52;;;;;;;23.57;9.60;;;10.90;99.90;;;;;;4997119;28;20488;-69
2023/02/19 01:50:19;;;;;;;24.30;12.60;;;10.80;99.90;;;;;;5000654;28;20538;-70
2023/02/19 01:52:47;;;;;;;22.03;10.63;;;10.80;99.90;;;;;;5000639;28;20456;-70
2023/02/19 01:55:14;;;;;;;18.67;11.37;;;10.90;99.90;;;;;;4999214;28;20560;-70
2023/02/19 01:57:48;;;;;;;27.97;12.40;;;10.80;99.90;;;;;;5004821;28;20492;-70
2023/02/19 02:00:17;;;;;;;15.53;7.13;;;10.80;99.90;;;;;;5001478;28;21080;-70
2023/02/19 02:02:51;;;;;;;18.97;11.37;;;10.80;99.90;;;;;;5000831;28;20535;-69
2023/02/19 02:05:24;;;;;;;24.20;10.07;;;10.80;99.90;;;;;;5004917;28;20434;-69
2023/02/19 02:10:36;;;;;;;12.83;7.87;;;10.80;99.90;;;;;;5001504;28;20456;-70
2023/02/19 02:13:05;;;;;;;16.93;9.20;;;10.70;99.90;;;;;;4998620;28;21798;-69
2023/02/19 02:15:41;;;;;;;18.73;8.30;;;10.70;99.90;;;;;;5023133;28;20461;-69
2023/02/19 02:18:16;;;;;;;13.43;6.53;;;10.70;99.90;;;;;;5012684;28;20535;-69
2023/02/19 02:20:58;;;;;;;19.10;9.53;;;10.60;99.90;;;;;;5005442;28;20503;-69
2023/02/19 02:23:39;;;;;;;16.60;8.67;;;10.60;99.90;;;;;;4998869;28;20472;-70
2023/02/19 02:26:35;;;;;;;17.57;8.43;;;10.60;99.90;;;;;;4999508;28;21157;-70
2023/02/19 02:29:44;;;;;;;13.90;7.67;;;10.70;99.90;;;;;;5012250;28;20475;-70
2023/02/19 02:32:17;;;;;;;19.50;7.80;;;10.70;99.90;;;;;;4963103;28;20581;-70
2023/02/19 02:34:50;;;;;;;14.27;5.93;;;10.70;99.90;;;;;;4998449;28;20548;-70
2023/02/19 02:37:16;;;;;;;15.97;8.80;;;10.80;99.90;;;;;;5000688;28;20564;-70
2023/02/19 02:39:45;;;;;;;15.63;8.90;;;10.70;99.90;;;;;;4996844;28;20470;-70
2023/02/19 02:42:27;;;;;;;15.50;8.73;;;10.60;99.90;;;;;;5001878;28;20461;-70
2023/02/19 02:47:47;;;;;;;12.63;7.57;;;10.60;99.90;;;;;;5002370;28;20480;-70
2023/02/19 02:50:17;;;;;;;21.20;9.30;;;10.50;99.90;;;;;;4998164;28;20544;-70
2023/02/19 02:55:35;;;;;;;13.90;7.53;;;10.50;99.90;;;;;;5000224;28;20492;-71
2023/02/19 02:58:03;;;;;;;18.97;9.10;;;10.70;99.90;;;;;;5000615;28;20496;-71
2023/02/19 03:02:09;;;;;;;14.73;6.10;;;10.70;99.90;;;;;;4998874;28;20877;-70
2023/02/19 03:03:25;;;;;;;13.50;8.10;;;10.70;99.90;;;;;;5000809;28;20794;-70
2023/02/19 03:05:58;;;;;;;13.90;8.90;;;10.60;99.90;;;;;;4999871;28;20444;-69
2023/02/19 03:08:29;;;;;;;15.77;6.60;;;10.60;99.90;;;;;;5004897;28;20804;-69
2023/02/19 03:19:17;;;;;;;13.83;7.50;;;10.60;99.90;;;;;;5003334;28;20992;-69
2023/02/19 03:19:27;;;;;;;15.60;7.60;;;10.50;99.90;;;;;;5018211;28;20468;-69
2023/02/19 03:21:58;;;;;;;11.47;7.97;;;10.50;99.90;;;;;;5010869;28;20913;-69
2023/02/19 03:27:18;;;;;;;15.10;9.13;;;10.50;99.90;;;;;;4996158;28;20535;-70
2023/02/19 03:29:48;;;;;;;14.00;7.07;;;10.50;99.90;;;;;;5013368;28;20460;-69
2023/02/19 03:32:19;;;;;;;20.43;11.93;;;10.50;99.90;;;;;;4994684;28;20458;-70
2023/02/19 03:34:53;;;;;;;14.37;6.73;;;10.60;99.90;;;;;;5004561;28;20462;-70
2023/02/19 03:37:26;;;;;;;20.93;10.50;;;10.60;99.90;;;;;;5004997;28;20488;-71
2023/02/19 03:39:54;;;;;;;18.80;9.00;;;10.60;99.90;;;;;;5008734;28;20457;-70
2023/02/19 03:42:35;;;;;;;19.47;8.57;;;10.50;99.90;;;;;;5004506;28;20581;-69
2023/02/19 03:45:23;;;;;;;20.97;6.90;;;10.50;99.90;;;;;;5008048;28;20483;-70
2023/02/19 03:47:54;;;;;;;6.17;4.93;;;10.40;99.90;;;;;;4992090;28;20719;-70
2023/02/19 03:50:29;;;;;;;14.23;7.30;;;10.40;99.90;;;;;;5005953;28;21025;-70
2023/02/19 03:53:03;;;;;;;10.03;6.10;;;10.30;99.90;;;;;;5001599;28;20952;-70
2023/02/19 03:55:39;;;;;;;10.07;6.27;;;10.40;99.90;;;;;;5002220;28;20477;-71
2023/02/19 03:58:12;;;;;;;11.50;7.17;;;10.40;99.90;;;;;;4994949;28;20463;-71
2023/02/19 04:00:44;;;;;;;5.17;3.97;;;10.30;99.90;;;;;;4997142;28;20468;-70
2023/02/19 04:03:20;;;;;;;5.90;4.00;;;10.40;99.90;;;;;;4998003;28;20752;-68
2023/02/19 04:05:53;;;;;;;12.33;6.97;;;10.30;99.90;;;;;;5003859;28;20492;-69
2023/02/19 04:08:27;;;;;;;18.37;10.73;;;10.30;99.90;;;;;;5004414;28;20486;-69
2023/02/19 04:10:55;;;;;;;6.03;3.87;;;10.40;99.90;;;;;;5000418;28;20832;-69
2023/02/19 04:13:27;;;;;;;9.40;5.80;;;10.40;99.90;;;;;;5003532;28;20898;-70
2023/02/19 04:15:58;;;;;;;9.00;5.30;;;10.30;99.90;;;;;;4998673;28;20579;-71
2023/02/19 04:18:29;;;;;;;13.07;5.67;;;10.30;99.90;;;;;;4996697;28;20520;-69
2023/02/19 04:20:59;;;;;;;19.30;6.13;;;10.20;99.90;;;;;;5004452;28;20499;-70
2023/02/19 04:23:30;;;;;;;10.23;6.97;;;10.30;99.90;;;;;;5000870;28;20461;-70
2023/02/19 04:26:00;;;;;;;8.90;6.10;;;10.40;99.90;;;;;;4996015;28;20469;-70
2023/02/19 04:28:29;;;;;;;15.00;6.93;;;10.40;99.90;;;;;;5001252;28;20461;-70
2023/02/19 04:31:00;;;;;;;22.00;6.67;;;10.40;99.90;;;;;;5006048;28;20499;-70
2023/02/19 04:33:26;;;;;;;12.03;8.10;;;10.40;99.90;;;;;;4995500;28;21056;-70
2023/02/19 04:35:53;;;;;;;9.80;6.27;;;10.30;99.90;;;;;;4998447;28;21478;-69
2023/02/19 04:38:21;;;;;;;15.53;8.20;;;10.30;99.90;;;;;;4997355;28;20486;-69
2023/02/19 04:40:50;;;;;;;7.87;5.10;;;10.30;99.90;;;;;;5007440;28;20461;-70
2023/02/19 04:43:17;;;;;;;8.63;4.53;;;10.30;99.90;;;;;;5012806;28;20465;-71
2023/02/19 04:45:44;;;;;;;15.93;6.30;;;10.20;99.90;;;;;;5017206;28;20459;-70
2023/02/19 04:48:11;;;;;;;11.53;7.13;;;10.20;99.90;;;;;;5001373;28;20465;-70
2023/02/19 04:50:38;;;;;;;8.33;5.23;;;10.30;99.90;;;;;;4999451;28;20468;-70
2023/02/19 04:53:05;;;;;;;13.63;6.60;;;10.30;99.90;;;;;;4998394;28;20469;-70
2023/02/19 04:55:37;;;;;;;11.43;4.67;;;10.30;99.90;;;;;;4999994;28;20501;-69
2023/02/19 04:58:04;;;;;;;10.97;6.17;;;10.30;99.90;;;;;;5016825;28;20456;-69
2023/02/19 05:00:32;;;;;;;10.27;6.10;;;10.30;99.90;;;;;;5016103;28;20508;-69
2023/02/19 05:02:59;;;;;;;17.63;6.17;;;10.20;99.90;;;;;;5001961;28;20441;-70
2023/02/19 05:05:26;;;;;;;10.23;6.03;;;10.30;99.90;;;;;;5002147;28;20473;-71
2023/02/19 05:07:54;;;;;;;6.97;5.43;;;10.30;99.90;;;;;;5005761;28;20548;-72
2023/02/19 05:10:21;;;;;;;18.60;6.20;;;10.30;99.90;;;;;;4999388;28;20473;-70
2023/02/19 05:12:49;;;;;;;3.90;2.67;;;10.30;99.90;;;;;;4991249;28;20561;-70
2023/02/19 05:15:16;;;;;;;8.97;6.10;;;10.30;99.90;;;;;;5002530;28;20778;-70
2023/02/19 05:17:43;;;;;;;10.87;6.13;;;10.20;99.90;;;;;;4996782;28;20874;-69
2023/02/19 05:20:10;;;;;;;6.60;4.60;;;10.20;99.90;;;;;;4995363;28;20656;-71
2023/02/19 05:22:37;;;;;;;9.67;6.67;;;10.20;99.90;;;;;;5001981;28;20866;-70
2023/02/19 05:25:05;;;;;;;9.83;6.47;;;10.20;99.90;;;;;;4992681;28;20989;-70
2023/02/19 05:27:37;;;;;;;13.70;7.03;;;10.20;99.90;;;;;;4995967;28;20588;-69
2023/02/19 05:30:06;;;;;;;17.30;5.37;;;10.20;99.90;;;;;;5002168;28;20469;-70
2023/02/19 05:32:35;;;;;;;13.67;7.40;;;10.10;99.90;;;;;;4998844;28;20541;-70
2023/02/19 05:35:02;;;;;;;13.00;6.07;;;10.10;99.90;;;;;;5000138;28;20545;-69
2023/02/19 05:37:29;;;;;;;8.40;6.03;;;10.10;99.90;;;;;;5003292;28;20576;-70
2023/02/19 05:39:55;;;;;;;10.37;4.60;;;10.20;99.90;;;;;;4998244;28;20925;-70
2023/02/19 05:42:22;;;;;;;11.10;6.03;;;10.20;99.90;;;;;;4998381;28;20561;-70
2023/02/19 05:44:49;;;;;;;11.17;6.27;;;10.20;99.90;;;;;;5005258;28;20465;-70
2023/02/19 05:47:18;;;;;;;11.97;6.07;;;10.20;99.90;;;;;;5006640;28;20521;-70
2023/02/19 05:49:45;;;;;;;9.40;5.00;;;10.20;99.90;;;;;;4998660;28;20511;-72
2023/02/19 05:52:12;;;;;;;11.20;5.73;;;10.10;99.90;;;;;;5001561;28;20741;-70
2023/02/19 05:54:39;;;;;;;12.77;5.97;;;10.20;99.90;;;;;;4998291;28;20461;-72
2023/02/19 05:57:06;;;;;;;7.90;5.53;;;10.10;99.90;;;;;;5002169;28;20926;-70
2023/02/19 05:59:33;;;;;;;10.93;5.40;;;10.10;99.90;;;;;;4998754;28;20465;-71
2023/02/19 06:02:02;;;;;;;7.80;5.03;;;10.20;99.90;;;;;;4991176;28;20473;-71
2023/02/19 06:04:30;;;;;;;8.20;5.03;;;10.10;99.90;;;;;;4997317;28;20557;-69
2023/02/19 06:06:57;;;;;;;13.33;5.97;;;10.10;99.90;;;;;;4996179;28;20486;-70
2023/02/19 06:09:24;;;;;;;12.00;6.60;;;10.10;99.90;;;;;;4998153;28;20455;-71
2023/02/19 06:11:51;;;;;;;11.97;6.67;;;10.10;99.90;;;;;;4999932;28;21025;-70
2023/02/19 06:14:18;;;;;;;8.40;5.17;;;10.10;99.90;;;;;;4996705;28;20451;-71
2023/02/19 06:16:44;;;;;;;13.20;6.67;;;10.10;99.90;;;;;;4998837;28;20697;-70
2023/02/19 06:19:11;;;;;;;5.57;5.03;;;10.10;99.90;;;;;;5001378;28;21325;-70
2023/02/19 06:21:40;;;;;;;7.47;6.00;;;10.10;99.90;;;;;;5001679;28;20454;-70
2023/02/19 06:24:08;;;;;;;7.77;5.40;;;10.00;99.90;;;;;;5000914;28;20465;-70
2023/02/19 06:26:35;;;;;;;6.03;4.37;;;9.90;99.90;;;;;;4999873;28;20634;-70
2023/02/19 06:29:02;;;;;;;7.83;4.47;;;9.90;99.90;;;;;;5004353;28;20465;-70
2023/02/19 06:31:29;;;;;;;8.63;5.53;;;9.90;99.90;;;;;;5003090;28;20472;-70
2023/02/19 06:33:56;;;;;;;12.20;6.37;;;9.90;99.90;;;;;;4996066;28;20902;-70
2023/02/19 06:36:23;;;;;;;10.17;5.87;;;9.90;99.90;;;;;;4999497;28;20485;-70
2023/02/19 06:38:51;;;;;;;12.77;6.00;;;10.00;99.90;;;;;;5005399;28;20505;-70
2023/02/19 06:41:19;;;;;;;13.87;5.03;;;10.00;99.90;;;;;;5000098;28;20458;-70
2023/02/19 06:43:46;;;;;;;6.27;5.67;;;10.00;99.90;;;;;;4999023;28;20458;-70
2023/02/19 06:46:13;;;;;;;10.60;6.27;;;10.00;99.90;;;;;;5001025;28;20481;-71
2023/02/19 06:48:41;;;;;;;13.90;5.80;;;10.10;99.90;;;;;;5001584;28;20573;-71
2023/02/19 06:51:11;;;;;;;10.50;4.57;;;10.00;99.90;;;;;;5003401;28;20457;-70
2023/02/19 06:53:38;;;;;;;12.50;5.00;;;10.00;99.90;;;;;;4999370;28;20478;-71
2023/02/19 06:56:21;;;;;;;20.57;7.43;;;10.00;99.90;;;;;;5004013;28;20473;-72
2023/02/19 06:58:48;;;;;;;8.40;6.10;;;9.90;99.90;;;;;;5002563;28;20505;-70
2023/02/19 07:01:15;;;;;;;11.53;5.33;;;10.00;99.90;;;;;;5000871;28;20808;-71
2023/02/19 07:03:41;;;;;;;18.53;6.30;;;10.00;99.90;;;;;;5005988;28;20459;-71
2023/02/19 07:06:08;;;;;;;8.83;4.63;;;10.00;99.90;;;;;;5004807;28;20498;-70
2023/02/19 07:08:35;;;;;;;14.40;5.90;;;10.00;99.90;;;;;;5011556;28;20431;-71
2023/02/19 07:11:02;;;;;;;8.20;5.70;;;10.00;99.90;;;;;;5004430;28;20551;-70
2023/02/19 07:13:30;;;;;;;11.10;2.60;;;10.10;99.90;;;;;;5000529;28;20471;-71
2023/02/19 07:16:00;;;;;;;5.43;4.83;;;10.10;99.90;;;;;;5001854;28;20904;-70
2023/02/19 07:18:27;;;;;;;7.40;3.90;;;9.90;99.90;;;;;;5005731;28;20484;-71
2023/02/19 07:20:54;;;;;;;11.43;5.73;;;9.90;99.90;;;;;;5005911;28;20579;-71
2023/02/19 07:23:21;;;;;;;7.17;2.97;;;10.00;99.90;;;;;;5008654;28;20432;-71
2023/02/19 07:25:48;;;;;;;9.83;4.37;;;10.00;99.90;;;;;;5010488;28;20761;-71
2023/02/19 07:28:15;;;;;;;9.40;5.70;;;10.00;99.90;;;;;;5007226;28;20525;-70
2023/02/19 07:30:43;;;;;;;8.00;4.33;;;10.10;99.90;;;;;;5002568;28;20450;-70
2023/02/19 07:33:11;;;;;;;6.13;3.77;;;10.00;99.90;;;;;;5018728;28;20436;-71
2023/02/19 07:35:38;;;;;;;6.67;4.67;;;10.10;99.90;;;;;;5002656;28;20460;-70
2023/02/19 07:38:05;;;;;;;9.80;4.40;;;10.10;99.90;;;;;;4997005;28;20580;-71
2023/02/19 07:40:32;;;;;;;7.03;5.00;;;10.10;99.90;;;;;;4997731;28;20468;-71
2023/02/19 07:43:01;;;;;;;9.43;4.03;;;10.10;99.90;;;;;;4998489;28;20477;-71
2023/02/19 07:45:29;;;;;;;7.90;6.10;;;10.10;99.90;;;;;;4998210;28;20460;-70
2023/02/19 07:47:57;;;;;;;6.53;4.60;;;10.00;99.90;;;;;;5002338;28;21028;-71
2023/02/19 07:50:24;;;;;;;8.43;4.17;;;10.00;99.90;;;;;;5007059;28;20579;-71
2023/02/19 07:52:51;;;;;;;6.13;4.17;;;10.00;99.90;;;;;;4998585;28;20479;-70
2023/02/19 07:55:18;;;;;;;4.97;3.17;;;10.00;99.90;;;;;;5004840;28;20448;-71
2023/02/19 07:57:45;;;;;;;11.30;4.03;;;10.00;99.90;;;;;;4983929;28;20443;-71
2023/02/19 08:00:13;;;;;;;7.87;3.57;;;10.00;99.90;;;;;;5006397;28;20596;-70
2023/02/19 08:05:25;;;;;;;8.80;4.63;;;10.10;99.90;;;;;;5003503;28;20469;-71
2023/02/19 08:07:52;;;;;;;7.13;5.30;;;10.00;99.90;;;;;;5002449;28;20572;-71
2023/02/19 08:13:19;;;;;;;6.63;3.57;;;10.10;99.90;;;;;;4938934;28;20470;-70
2023/02/19 08:15:46;;;;;;;5.80;4.47;;;10.10;99.90;;;;;;4993976;28;20517;-69
2023/02/19 08:18:15;;;;;;;17.63;3.90;;;10.20;99.90;;;;;;4997612;28;20550;-70
2023/02/19 08:20:43;;;;;;;6.57;4.17;;;10.10;99.90;;;;;;5007273;28;20507;-71
2023/02/19 08:23:11;;;;;;;6.97;4.73;;;10.10;99.90;;;;;;4998852;28;20861;-72
2023/02/19 08:25:39;;;;;;;10.93;4.07;;;10.10;99.90;;;;;;5002525;28;20561;-70
2023/02/19 08:28:07;;;;;;;3.43;2.90;;;10.10;99.90;;;;;;5003069;28;20458;-70
2023/02/19 08:30:36;;;;;;;7.13;4.93;;;10.20;99.90;;;;;;4995098;28;20565;-69
2023/02/19 08:33:05;;;;;;;4.83;3.03;;;10.20;99.90;;;;;;5003000;28;20488;-69
2023/02/19 08:35:31;;;;;;;4.50;2.43;;;10.30;99.90;;;;;;4999044;28;20753;-68
2023/02/19 08:38:00;;;;;;;8.33;4.13;;;10.40;99.90;;;;;;4992304;28;20493;-70
2023/02/19 08:40:27;;;;;;;6.80;6.10;;;10.40;99.90;;;;;;4998915;28;20568;-71
2023/02/19 08:42:54;;;;;;;5.47;3.40;;;10.50;99.90;;;;;;4995199;28;20557;-70
2023/02/19 08:45:23;;;;;;;8.93;4.87;;;10.60;99.90;;;;;;4998700;28;20465;-70
2023/02/19 08:47:49;;;;;;;6.57;3.30;;;10.60;99.90;;;;;;4998617;28;21039;-70
2023/02/19 08:50:16;;;;;;;5.10;3.30;;;10.60;99.90;;;;;;5006667;28;20553;-70
2023/02/19 08:52:43;;;;;;;3.47;3.07;;;10.60;99.90;;;;;;4995227;28;20589;-69
2023/02/19 08:55:12;;;;;;;4.13;2.70;;;10.60;99.90;;;;;;5002365;28;20452;-72
2023/02/19 08:57:39;;;;;;;7.40;5.00;;;10.60;99.90;;;;;;5003974;28;20524;-69
2023/02/19 09:00:08;;;;;;;8.90;5.10;;;10.50;99.90;;;;;;5003346;28;20517;-71
2023/02/19 09:02:35;;;;;;;6.17;3.73;;;10.60;99.90;;;;;;5007336;28;20895;-69
2023/02/19 09:05:03;;;;;;;6.50;5.17;;;10.60;99.90;;;;;;5005317;28;20446;-70
2023/02/19 09:07:30;;;;;;;5.17;3.73;;;10.60;99.90;;;;;;5004985;28;20478;-70
2023/02/19 09:09:57;;;;;;;9.50;5.13;;;10.50;99.90;;;;;;5000670;28;20516;-70
2023/02/19 09:12:26;;;;;;;7.37;5.70;;;10.50;99.90;;;;;;4999962;28;20432;-70
2023/02/19 09:14:54;;;;;;;8.23;4.60;;;10.70;99.90;;;;;;5003917;28;20464;-71
2023/02/19 09:17:21;;;;;;;6.90;4.37;;;10.70;99.90;;;;;;4993961;28;20484;-70
2023/02/19 09:19:48;;;;;;;6.13;4.77;;;10.70;99.90;;;;;;4999122;28;20489;-70
2023/02/19 09:22:14;;;;;;;8.43;4.10;;;10.60;99.90;;;;;;5005529;28;20489;-70
2023/02/19 09:24:42;;;;;;;7.97;4.73;;;10.60;99.90;;;;;;4995252;28;20466;-70
2023/02/19 09:27:10;;;;;;;8.40;4.33;;;10.80;99.90;;;;;;4990701;28;20448;-70
2023/02/19 09:29:38;;;;;;;9.47;4.97;;;10.90;99.90;;;;;;4996647;28;20454;-71
2023/02/19 09:32:05;;;;;;;6.20;4.60;;;10.90;99.90;;;;;;4999084;28;20490;-70
2023/02/19 09:34:32;;;;;;;6.70;4.63;;;10.80;99.90;;;;;;5005173;28;20484;-69
2023/02/19 09:36:59;;;;;;;7.90;4.67;;;10.70;99.90;;;;;;5003505;28;20452;-69
2023/02/19 09:39:26;;;;;;;5.33;3.83;;;10.60;99.90;;;;;;4997617;28;20503;-71
2023/02/19 09:41:55;;;;;;;11.80;5.67;;;10.80;99.90;;;;;;4999661;28;20544;-71
2023/02/19 09:44:27;;;;;;;7.70;5.67;;;10.90;99.90;;;;;;5001179;28;20436;-71
2023/02/19 09:46:56;;;;;;;7.53;5.00;;;11.00;99.90;;;;;;4996466;28;20817;-71
2023/02/19 09:49:29;;;;;;;5.77;4.70;;;11.20;99.90;;;;;;5005559;28;20812;-71
2023/02/19 09:52:01;;;;;;;16.23;5.63;;;11.20;99.90;;;;;;5000429;28;20536;-71
2023/02/19 09:54:30;;;;;;;7.23;4.17;;;11.20;99.90;;;;;;5003228;28;20940;-71
2023/02/19 09:57:00;;;;;;;4.53;2.53;;;11.20;99.90;;;;;;4997454;28;20536;-72
2023/02/19 09:59:30;;;;;;;7.63;3.97;;;11.00;99.90;;;;;;5002232;28;20482;-70
2023/02/19 10:02:04;;;;;;;8.57;5.73;;;10.90;99.90;;;;;;4998912;28;20473;-71
2023/02/19 10:04:31;;;;;;;7.70;4.77;;;10.90;99.90;;;;;;5019373;28;20445;-71
2023/02/19 10:07:02;;;;;;;5.73;3.87;;;10.90;99.90;;;;;;5002714;28;20474;-69
2023/02/19 10:09:30;;;;;;;4.50;3.47;;;10.80;99.90;;;;;;5001308;28;20560;-71
2023/02/19 10:11:59;;;;;;;6.00;3.03;;;10.70;99.90;;;;;;4999058;28;20866;-69
2023/02/19 10:14:34;;;;;;;14.80;3.87;;;10.80;99.90;;;;;;5001185;28;20484;-70
2023/02/19 10:17:05;;;;;;;6.30;4.20;;;10.60;99.90;;;;;;4994533;28;20844;-72
2023/02/19 10:19:32;;;;;;;6.80;3.77;;;10.50;99.90;;;;;;4999449;28;20488;-71
2023/02/19 10:22:02;;;;;;;6.67;3.17;;;10.60;99.90;;;;;;5001218;28;20507;-71
2023/02/19 10:24:30;;;;;;;6.37;3.73;;;10.70;99.90;;;;;;4998684;28;20552;-71
2023/02/19 10:26:57;;;;;;;5.20;3.40;;;10.80;99.90;;;;;;4995826;28;20553;-71
2023/02/19 10:29:26;;;;;;;3.30;2.97;;;10.80;99.90;;;;;;4991783;28;20983;-70
2023/02/19 10:32:20;;;;;;;8.57;3.40;;;10.70;99.90;;;;;;5000845;28;20480;-71
2023/02/19 10:34:47;;;;;;;3.17;2.60;;;10.70;99.90;;;;;;5004473;28;21035;-70
2023/02/19 10:37:17;;;;;;;3.00;2.70;;;10.70;99.90;;;;;;4998073;28;21012;-69
2023/02/19 10:39:46;;;;;;;11.03;5.20;;;10.60;99.90;;;;;;4994603;28;20502;-70
2023/02/19 10:42:24;;;;;;;5.30;3.17;;;10.60;99.90;;;;;;5004787;28;20858;-69
2023/02/19 10:44:57;;;;;;;7.20;4.13;;;10.60;99.90;;;;;;4995822;28;20444;-71
2023/02/19 10:47:29;;;;;;;11.47;4.80;;;10.60;99.90;;;;;;5000564;28;20500;-71
2023/02/19 10:49:59;;;;;;;4.83;3.47;;;10.50;99.90;;;;;;5000905;28;20537;-71
2023/02/19 10:52:28;;;;;;;8.23;3.53;;;10.50;99.90;;;;;;5004446;28;20886;-71
2023/02/19 10:54:57;;;;;;;18.53;3.53;;;10.70;99.90;;;;;;5007007;28;20474;-72
2023/02/19 10:57:31;;;;;;;3.77;3.20;;;10.70;99.90;;;;;;5008265;28;20556;-72
2023/02/19 11:00:02;;;;;;;8.53;2.80;;;10.80;99.90;;;;;;5000750;28;20581;-69
2023/02/19 11:02:31;;;;;;;3.67;2.50;;;11.00;99.90;;;;;;5003864;28;20469;-73
2023/02/19 11:05:19;;;;;;;4.00;3.20;;;11.10;99.90;;;;;;5009155;28;20447;-70
2023/02/19 11:07:52;;;;;;;9.60;2.40;;;11.20;99.90;;;;;;5015198;28;20461;-71
2023/02/19 11:10:29;;;;;;;9.07;2.43;;;11.40;99.90;;;;;;4998495;28;20454;-72
2023/02/19 11:12:58;;;;;;;9.67;3.83;;;11.10;99.90;;;;;;5006181;28;21023;-72
2023/02/19 11:15:28;;;;;;;3.20;2.07;;;11.10;99.90;;;;;;5006896;28;20525;-71
2023/02/19 11:17:59;;;;;;;6.50;2.60;;;11.00;99.90;;;;;;5008126;28;20467;-71
2023/02/19 11:20:27;;;;;;;5.33;2.60;;;11.00;99.90;;;;;;5004084;28;20487;-72
2023/02/19 11:22:59;;;;;;;7.00;2.10;;;11.00;99.90;;;;;;5000229;28;20476;-72
2023/02/19 11:25:27;;;;;;;2.90;1.80;;;11.00;99.90;;;;;;4995444;28;20552;-70
2023/02/19 11:28:05;;;;;;;2.80;1.97;;;11.00;99.90;;;;;;4985516;28;20443;-74
2023/02/19 11:30:36;;;;;;;2.30;1.57;;;10.90;99.90;;;;;;5003186;28;20459;-70
2023/02/19 11:33:29;;;;;;;1.70;1.23;;;10.50;99.90;;;;;;5006096;28;20457;-71
2023/02/19 11:36:21;;;;;;;2.93;1.63;;;10.10;99.90;;;;;;4997910;28;20484;-71
2023/02/19 11:38:48;;;;;;;2.60;1.87;;;9.90;99.90;;;;;;4997875;28;20963;-70
2023/02/19 11:41:22;;;;;;;2.10;1.77;;;9.60;99.90;;;;;;5003576;28;20547;-72
2023/02/19 11:44:04;;;;;;;1.33;1.00;;;9.50;99.90;;;;;;5001314;28;20439;-70
2023/02/19 11:46:44;;;;;;;1.50;1.30;;;9.60;99.90;;;;;;5000447;28;20861;-71
2023/02/19 11:49:26;;;;;;;1.57;1.13;;;9.50;99.90;;;;;;5005609;28;20437;-71
2023/02/19 11:52:07;;;;;;;1.93;1.40;;;9.40;99.90;;;;;;4997084;28;20611;-72
2023/02/19 11:54:49;;;;;;;1.57;1.13;;;9.40;99.90;;;;;;4997544;28;20520;-71
2023/02/19 11:57:31;;;;;;;2.40;1.00;;;9.40;99.90;;;;;;5000067;28;20457;-70
2023/02/19 12:00:09;;;;;;;1.93;1.20;;;9.40;99.90;;;;;;4998702;28;20560;-71
2023/02/19 12:03:11;;;;;;;1.07;0.90;;;9.40;99.90;;;;;;5002134;28;20533;-71
2023/02/19 12:06:11;;;;;;;1.10;1.00;;;9.50;99.90;;;;;;5001099;28;20493;-72
2023/02/19 12:09:04;;;;;;;1.80;1.60;;;9.60;99.90;;;;;;5003648;28;20432;-70
2023/02/19 12:11:43;;;;;;;2.77;1.33;;;9.40;99.90;;;;;;5013181;28;20513;-71
2023/02/19 12:14:49;;;;;;;3.30;1.60;;;9.50;99.90;;;;;;5023078;28;20551;-69
2023/02/19 12:17:32;;;;;;;2.13;1.73;;;9.50;99.90;;;;;;5002524;28;20534;-71
2023/02/19 12:20:14;;;;;;;1.43;1.33;;;9.30;99.90;;;;;;5002818;28;20477;-71
2023/02/19 12:22:46;;;;;;;3.30;1.97;;;9.30;99.90;;;;;;5010886;28;20965;-70
2023/02/19 12:25:36;;;;;;;1.33;1.13;;;9.60;99.90;;;;;;4996529;28;20584;-70
2023/02/19 12:28:23;;;;;;;8.83;1.80;;;9.90;99.90;;;;;;4993712;28;20509;-70
2023/02/19 12:31:08;;;;;;;1.10;0.97;;;10.20;99.90;;;;;;5002103;28;20533;-71
2023/02/19 12:34:05;;;;;;;2.17;1.73;;;10.20;99.90;;;;;;5000994;28;20567;-70
2023/02/19 12:36:41;;;;;;;1.70;1.20;;;10.30;99.90;;;;;;5010144;28;20530;-71
2023/02/19 12:39:30;;;;;;;1.90;1.20;;;10.40;99.90;;;;;;5000975;28;20571;-71
2023/02/19 12:42:02;;;;;;;2.60;1.67;;;10.50;99.90;;;;;;4995840;28;20465;-71
2023/02/19 12:44:38;;;;;;;2.17;1.33;;;10.50;99.90;;;;;;5008695;28;20535;-71
2023/02/19 12:47:07;;;;;;;2.50;1.73;;;10.60;99.90;;;;;;4999786;28;20560;-71
2023/02/19 12:49:37;;;;;;;2.03;1.67;;;10.30;99.90;;;;;;5003235;28;21100;-70
2023/02/19 12:52:09;;;;;;;1.60;1.30;;;10.20;99.90;;;;;;5003301;28;20461;-71
2023/02/19 12:54:40;;;;;;;2.03;1.80;;;10.20;99.90;;;;;;4998532;28;20501;-71
2023/02/19 12:57:12;;;;;;;3.00;1.70;;;10.30;99.90;;;;;;5001636;28;20517;-72
2023/02/19 12:59:46;;;;;;;2.07;1.40;;;10.30;99.90;;;;;;5008886;28;20564;-71
2023/02/19 13:02:18;;;;;;;2.23;1.73;;;10.30;99.90;;;;;;5004281;28;20472;-70
2023/02/19 13:04:50;;;;;;;3.73;2.10;;;10.30;99.90;;;;;;5003967;28;20570;-72
2023/02/19 13:07:23;;;;;;;1.40;1.27;;;10.40;99.90;;;;;;5005473;28;21190;-71
2023/02/19 13:09:58;;;;;;;2.70;2.30;;;10.30;99.90;;;;;;5010389;28;20537;-70
2023/02/19 13:12:28;;;;;;;1.87;1.50;;;10.20;99.90;;;;;;4995754;28;20519;-70
2023/02/19 13:14:59;;;;;;;3.57;2.30;;;10.20;99.90;;;;;;5010254;28;20465;-71
2023/02/19 13:17:32;;;;;;;1.97;1.40;;;10.30;99.90;;;;;;4995993;28;21020;-71
2023/02/19 13:20:05;;;;;;;3.40;1.57;;;10.40;99.90;;;;;;5000816;28;20485;-69
2023/02/19 13:25:45;;;;;;;1.43;1.33;;;10.60;99.90;;;;;;5001314;28;20532;-70
2023/02/19 13:28:32;;;;;;;2.60;2.00;;;10.40;99.90;;;;;;4998201;28;20488;-71